createdAt,value
2023-01-26T00:00:54.576Z,524.00
2023-01-26T00:03:22.346Z,508.73
2023-01-26T00:05:49.502Z,516.70
2023-01-26T00:08:16.691Z,587.67
2023-01-26T00:10:50.292Z,530.25
2023-01-26T00:13:20.682Z,540.80
2023-01-26T00:15:47.832Z,505.00
2023-01-26T00:18:15.112Z,522.15
2023-01-26T00:20:42.364Z,609.15
2023-01-26T00:23:09.548Z,508.83
2023-01-26T00:25:39.974Z,607.47
2023-01-26T00:28:07.124Z,612.95
2023-01-26T00:30:34.346Z,525.92
2023-01-26T00:33:01.569Z,618.95
2023-01-26T00:35:28.778Z,517.85
2023-01-26T00:37:55.933Z,542.65
2023-01-26T00:40:23.115Z,613.80
2023-01-26T00:42:50.275Z,524.90
2023-01-26T00:45:17.577Z,621.70
2023-01-26T00:47:44.892Z,600.90
2023-01-26T00:50:12.484Z,547.75
2023-01-26T00:52:39.836Z,628.25
2023-01-26T00:55:07.242Z,638.13
2023-01-26T00:57:34.381Z,597.80
2023-01-26T01:00:01.539Z,615.80
2023-01-26T01:02:28.835Z,626.10
2023-01-26T01:04:56.180Z,648.00
2023-01-26T01:07:23.434Z,633.15
2023-01-26T01:09:50.574Z,638.22
2023-01-26T01:12:17.715Z,631.28
2023-01-26T01:14:44.948Z,664.10
2023-01-26T01:17:12.116Z,657.05
2023-01-26T01:19:39.854Z,660.92
2023-01-26T01:22:07.115Z,666.33
2023-01-26T01:24:35.345Z,565.40
2023-01-26T01:27:02.578Z,663.65
2023-01-26T01:29:29.909Z,595.63
2023-01-26T01:31:57.101Z,669.00
2023-01-26T01:34:24.338Z,680.33
2023-01-26T01:36:52.251Z,670.67
2023-01-26T01:39:19.435Z,585.47
2023-01-26T01:41:46.820Z,672.35
2023-01-26T01:44:22.084Z,675.20
2023-01-26T01:47:00.263Z,680.40
2023-01-26T01:49:29.323Z,685.15
2023-01-26T01:51:59.548Z,698.13
2023-01-26T01:54:30.251Z,570.78
2023-01-26T01:56:58.853Z,604.08
2023-01-26T01:59:26.454Z,681.70
2023-01-26T02:01:54.114Z,587.45
2023-01-26T02:04:23.409Z,671.75
2023-01-26T02:06:54.933Z,690.90
2023-01-26T02:09:45.202Z,667.83
2023-01-26T02:12:13.686Z,678.28
2023-01-26T02:14:41.776Z,598.58
2023-01-26T02:17:09.861Z,676.58
2023-01-26T02:19:48.993Z,676.60
2023-01-26T02:22:36.447Z,670.50
2023-01-26T02:25:07.655Z,674.85
2023-01-26T02:27:34.876Z,574.60
2023-01-26T02:30:03.348Z,580.63
2023-01-26T02:32:30.502Z,676.97
2023-01-26T02:34:57.980Z,666.65
2023-01-26T02:37:25.178Z,669.20
2023-01-26T02:40:01.958Z,676.42
2023-01-26T02:42:44.471Z,611.95
2023-01-26T02:45:13.326Z,583.67
2023-01-26T02:47:40.583Z,662.90
2023-01-26T02:50:10.994Z,671.28
2023-01-26T02:52:38.780Z,672.42
2023-01-26T02:55:25.513Z,675.08
2023-01-26T02:57:54.402Z,622.10
2023-01-26T03:00:23.456Z,696.58
2023-01-26T03:02:52.216Z,599.22
2023-01-26T03:05:19.467Z,684.55
2023-01-26T03:07:46.631Z,604.78
2023-01-26T03:10:14.027Z,614.05
2023-01-26T03:12:41.180Z,692.45
2023-01-26T03:15:27.202Z,692.63
2023-01-26T03:18:21.501Z,696.10
2023-01-26T03:21:07.208Z,611.22
2023-01-26T03:23:53.338Z,670.67
2023-01-26T03:26:39.246Z,684.75
2023-01-26T03:29:06.631Z,684.15
2023-01-26T03:31:33.872Z,680.03
2023-01-26T03:34:00.996Z,675.88
2023-01-26T03:36:28.133Z,683.88
2023-01-26T03:38:55.328Z,676.45
2023-01-26T03:41:41.007Z,578.05
2023-01-26T03:44:27.102Z,595.03
2023-01-26T03:47:12.840Z,687.92
2023-01-26T03:49:58.794Z,674.25
2023-01-26T03:52:44.893Z,681.40
2023-01-26T03:55:30.874Z,586.65
2023-01-26T03:57:57.992Z,685.72
2023-01-26T04:00:25.093Z,674.50
2023-01-26T04:03:10.930Z,600.70
2023-01-26T04:05:56.707Z,679.83
2023-01-26T04:08:44.658Z,685.28
2023-01-26T04:11:11.835Z,693.20
2023-01-26T04:13:57.447Z,692.22
2023-01-26T04:16:43.616Z,690.88
2023-01-26T04:19:29.623Z,598.50
2023-01-26T04:21:56.758Z,604.45
2023-01-26T04:24:24.657Z,596.72
2023-01-26T04:26:51.923Z,668.72
2023-01-26T04:29:19.113Z,577.90
2023-01-26T04:31:46.385Z,671.55
2023-01-26T04:34:14.920Z,677.08
2023-01-26T04:36:42.741Z,681.10
2023-01-26T04:39:10.463Z,571.38
2023-01-26T04:41:37.586Z,609.63
2023-01-26T04:44:04.779Z,679.38
2023-01-26T04:46:33.254Z,602.58
2023-01-26T04:49:00.390Z,689.75
2023-01-26T04:51:28.311Z,598.40
2023-01-26T04:53:55.418Z,617.88
2023-01-26T04:56:26.392Z,589.67
2023-01-26T04:58:54.107Z,658.95
2023-01-26T05:01:21.067Z,650.97
2023-01-26T05:03:48.311Z,574.72
2023-01-26T05:06:15.640Z,664.08
2023-01-26T05:08:42.698Z,668.63
2023-01-26T05:11:10.058Z,677.65
2023-01-26T05:13:37.278Z,584.25
2023-01-26T05:16:05.534Z,576.45
2023-01-26T05:18:32.423Z,593.33
2023-01-26T05:20:59.331Z,672.17
2023-01-26T05:23:27.020Z,674.83
2023-01-26T05:25:53.762Z,658.20
2023-01-26T05:28:20.474Z,671.88
2023-01-26T05:30:48.027Z,593.65
2023-01-26T05:33:15.915Z,687.78
2023-01-26T05:35:43.187Z,676.22
2023-01-26T05:38:10.150Z,627.28
2023-01-26T05:40:36.962Z,595.63
2023-01-26T05:43:03.825Z,595.13
2023-01-26T05:45:30.619Z,661.53
2023-01-26T05:47:57.487Z,649.10
2023-01-26T05:50:24.234Z,586.90
2023-01-26T05:52:50.957Z,659.72
2023-01-26T05:55:17.874Z,671.70
2023-01-26T05:57:44.677Z,579.85
2023-01-26T06:00:13.210Z,592.15
2023-01-26T06:02:40.183Z,653.03
2023-01-26T06:05:07.873Z,588.38
2023-01-26T06:07:34.667Z,646.08
2023-01-26T06:10:01.463Z,676.10
2023-01-26T06:12:35.356Z,688.17
2023-01-26T06:15:03.048Z,659.22
2023-01-26T06:17:29.845Z,650.40
2023-01-26T06:19:56.678Z,667.67
2023-01-26T06:22:23.854Z,566.92
2023-01-26T06:24:54.095Z,676.22
2023-01-26T06:27:20.801Z,604.00
2023-01-26T06:29:47.582Z,616.38
2023-01-26T06:32:15.386Z,659.72
2023-01-26T06:34:42.278Z,688.28
2023-01-26T06:37:09.811Z,655.65
2023-01-26T06:39:36.564Z,606.88
2023-01-26T06:42:03.539Z,676.45
2023-01-26T06:44:30.359Z,592.63
2023-01-26T06:46:57.095Z,588.33
2023-01-26T06:49:23.794Z,566.42
2023-01-26T06:52:21.692Z,588.10
2023-01-26T06:54:50.382Z,667.67
2023-01-26T06:57:17.120Z,674.67
2023-01-26T06:59:43.877Z,606.80
2023-01-26T07:02:19.625Z,670.67
2023-01-26T07:04:47.459Z,685.50
2023-01-26T07:07:14.557Z,624.40
2023-01-26T07:09:41.503Z,644.40
2023-01-26T07:12:08.330Z,708.33
2023-01-26T07:14:35.453Z,743.13
2023-01-26T07:17:02.722Z,687.45
2023-01-26T07:19:31.477Z,657.42
2023-01-26T07:21:58.222Z,649.33
2023-01-26T07:24:25.293Z,761.58
2023-01-26T07:26:52.874Z,755.72
2023-01-26T07:29:19.633Z,646.30
2023-01-26T07:31:46.456Z,669.90
2023-01-26T07:34:13.430Z,738.15
2023-01-26T07:36:40.442Z,752.13
2023-01-26T07:39:08.655Z,748.15
2023-01-26T07:41:35.693Z,665.35
2023-01-26T07:44:02.589Z,670.28
2023-01-26T07:46:29.437Z,664.92
2023-01-26T07:48:56.749Z,740.30
2023-01-26T07:51:23.828Z,710.05
2023-01-26T07:53:50.643Z,733.92
2023-01-26T07:56:21.948Z,646.05
2023-01-26T07:58:52.959Z,652.85
2023-01-26T08:01:20.693Z,660.50
2023-01-26T08:03:50.977Z,758.30
2023-01-26T08:06:18.594Z,766.53
2023-01-26T08:08:51.026Z,749.00
2023-01-26T08:11:19.525Z,677.70
2023-01-26T08:13:46.405Z,779.90
2023-01-26T08:16:13.346Z,761.90
2023-01-26T08:18:45.186Z,669.17
2023-01-26T08:21:14.415Z,683.42
2023-01-26T08:23:41.285Z,688.53
2023-01-26T08:26:11.095Z,769.33
2023-01-26T08:28:37.915Z,784.55
2023-01-26T08:31:11.553Z,691.03
2023-01-26T08:33:39.428Z,784.60
2023-01-26T08:36:08.788Z,703.85
2023-01-26T08:38:35.784Z,671.65
2023-01-26T08:41:03.349Z,795.70
2023-01-26T08:43:30.716Z,789.30
2023-01-26T08:46:00.248Z,703.80
2023-01-26T08:48:31.294Z,687.40
2023-01-26T08:51:01.158Z,681.28
2023-01-26T08:53:31.532Z,792.90
2023-01-26T08:56:01.399Z,785.30
2023-01-26T08:58:29.574Z,789.83
2023-01-26T09:00:56.565Z,764.28
2023-01-26T09:03:23.566Z,784.05
2023-01-26T09:05:50.522Z,777.58
2023-01-26T09:08:17.566Z,686.67
2023-01-26T09:10:45.265Z,801.85
2023-01-26T09:13:12.724Z,685.28
2023-01-26T09:15:39.732Z,706.25
2023-01-26T09:18:06.612Z,814.70
2023-01-26T09:20:33.616Z,696.83
2023-01-26T09:23:00.902Z,705.67
2023-01-26T09:25:27.735Z,703.90
2023-01-26T09:27:54.560Z,697.65
2023-01-26T09:30:24.233Z,791.85
2023-01-26T09:32:52.020Z,711.15
2023-01-26T09:35:19.547Z,804.25
2023-01-26T09:37:46.706Z,711.58
2023-01-26T09:40:23.373Z,702.75
2023-01-26T09:43:00.096Z,699.92
2023-01-26T09:45:30.684Z,691.58
2023-01-26T09:48:18.316Z,789.17
2023-01-26T09:51:23.333Z,784.42
2023-01-26T09:53:55.814Z,810.13
2023-01-26T09:56:28.478Z,677.33
2023-01-26T09:59:01.178Z,756.53
2023-01-26T10:01:48.893Z,714.97
2023-01-26T10:04:39.366Z,810.70
2023-01-26T10:07:11.643Z,825.60
2023-01-26T10:09:41.044Z,692.20
2023-01-26T10:12:14.673Z,809.33
2023-01-26T10:14:46.821Z,823.70
2023-01-26T10:17:24.775Z,704.17
2023-01-26T10:20:00.327Z,709.72
2023-01-26T10:22:48.748Z,707.22
2023-01-26T10:25:44.428Z,715.42
2023-01-26T10:28:18.567Z,806.95
2023-01-26T10:30:47.462Z,814.35
2023-01-26T10:33:35.777Z,847.83
2023-01-26T10:36:06.223Z,827.22
2023-01-26T10:38:32.954Z,833.67
2023-01-26T10:41:24.960Z,855.72
2023-01-26T10:43:54.012Z,846.60
2023-01-26T10:46:28.390Z,725.40
2023-01-26T10:48:58.083Z,858.17
2023-01-26T10:51:33.557Z,734.25
2023-01-26T10:54:18.546Z,836.00
2023-01-26T10:56:52.021Z,826.05
2023-01-26T10:59:48.104Z,848.60
2023-01-26T11:02:14.888Z,851.97
2023-01-26T11:04:42.231Z,836.42
2023-01-26T11:07:27.465Z,848.58
2023-01-26T11:09:55.339Z,720.83
2023-01-26T11:12:25.838Z,835.72
2023-01-26T11:15:04.668Z,847.13
2023-01-26T11:17:40.834Z,870.20
2023-01-26T11:20:32.628Z,768.67
2023-01-26T11:23:21.331Z,832.60
2023-01-26T11:26:14.279Z,860.92
2023-01-26T11:28:53.125Z,706.53
2023-01-26T11:31:40.483Z,847.00
2023-01-26T11:34:24.767Z,731.97
2023-01-26T11:37:29.020Z,861.08
2023-01-26T11:40:26.096Z,853.72
2023-01-26T11:42:59.011Z,874.38
2023-01-26T11:45:33.465Z,844.47
2023-01-26T11:48:24.773Z,860.85
2023-01-26T11:51:12.310Z,849.40
2023-01-26T11:53:45.411Z,856.75
2023-01-26T11:56:18.322Z,893.83
2023-01-26T11:59:00.428Z,784.95
2023-01-26T12:01:36.144Z,890.25
2023-01-26T12:04:03.022Z,880.30
2023-01-26T12:06:30.134Z,879.20
2023-01-26T12:09:03.330Z,751.83
2023-01-26T12:11:42.808Z,780.67
2023-01-26T12:14:40.516Z,884.63
2023-01-26T12:17:39.526Z,764.45
2023-01-26T12:20:29.719Z,748.08
2023-01-26T12:23:05.720Z,884.42
2023-01-26T12:25:39.721Z,778.70
2023-01-26T12:28:25.654Z,870.13
2023-01-26T12:31:18.624Z,782.60
2023-01-26T12:33:47.389Z,842.65
2023-01-26T12:36:41.382Z,778.08
2023-01-26T12:39:28.446Z,884.70
2023-01-26T12:41:55.320Z,882.90
2023-01-26T12:44:52.647Z,891.17
2023-01-26T12:47:22.886Z,855.60
2023-01-26T12:50:08.805Z,867.72
2023-01-26T12:53:04.051Z,856.97
2023-01-26T12:55:34.969Z,853.95
2023-01-26T12:58:05.633Z,836.80
2023-01-26T13:00:35.493Z,850.63
2023-01-26T13:03:56.448Z,825.45
2023-01-26T13:06:30.942Z,208.52
2023-01-26T13:09:26.133Z,220.18
2023-01-26T13:12:01.756Z,108.15
2023-01-26T13:14:59.582Z,115.15
2023-01-26T13:17:27.533Z,127.53
2023-01-26T13:19:59.911Z,195.98
2023-01-26T13:22:27.173Z,127.82
2023-01-26T13:25:40.203Z,165.20
2023-01-26T13:28:13.494Z,115.90
2023-01-26T13:33:28.513Z,104.95
2023-01-26T13:36:18.321Z,497.95
2023-01-26T13:39:12.272Z,562.38
2023-01-26T13:41:59.899Z,639.10
2023-01-26T13:44:58.981Z,649.17
2023-01-26T13:47:44.619Z,676.70
2023-01-26T13:50:37.909Z,671.95
2023-01-26T13:53:33.005Z,629.35
2023-01-26T13:56:22.664Z,559.75
2023-01-26T13:58:55.069Z,643.55
2023-01-26T14:01:22.049Z,533.78
2023-01-26T14:04:01.981Z,482.20
2023-01-26T14:06:31.969Z,570.45
2023-01-26T14:09:01.512Z,560.83
2023-01-26T14:11:31.069Z,562.85
2023-01-26T14:14:00.549Z,570.05
2023-01-26T14:16:36.746Z,400.63
2023-01-26T14:19:09.693Z,407.85
2023-01-26T14:22:02.751Z,349.52
2023-01-26T14:24:35.868Z,354.15
2023-01-26T14:27:45.250Z,330.83
2023-01-26T15:30:14.113Z,385.57
2023-01-26T15:33:40.824Z,264.67
2023-01-26T15:36:07.541Z,397.45
2023-01-26T15:38:35.695Z,289.17
2023-01-26T15:41:02.720Z,394.33
2023-01-26T15:43:29.703Z,290.10
2023-01-26T15:46:24.762Z,269.85
2023-01-26T15:48:52.417Z,358.58
2023-01-26T15:51:30.997Z,363.77
2023-01-26T15:53:57.963Z,283.83
2023-01-26T15:56:24.996Z,229.27
2023-01-26T15:59:00.220Z,214.75
2023-01-26T16:01:27.899Z,220.95
2023-01-26T16:03:54.976Z,342.25
2023-01-26T16:06:32.807Z,261.75
2023-01-26T16:12:35.936Z,382.35
2023-01-26T16:15:30.497Z,253.43
2023-01-26T16:18:02.858Z,267.35
2023-01-26T16:41:32.961Z,255.85
2023-01-26T16:44:02.314Z,357.77
2023-01-26T16:46:37.171Z,283.60
2023-01-26T16:49:04.565Z,240.07
2023-01-26T16:51:40.874Z,219.05
2023-01-26T16:54:08.455Z,349.35
2023-01-26T17:07:27.923Z,356.05
2023-01-26T17:10:02.372Z,393.67
2023-01-26T17:12:39.445Z,402.20
2023-01-26T17:15:24.088Z,263.52
2023-01-26T17:17:56.891Z,259.77
2023-01-26T17:24:37.902Z,272.45
2023-01-26T17:27:10.871Z,339.92
2023-01-26T17:33:05.449Z,248.13
2023-01-26T17:35:33.529Z,373.52
2023-01-26T17:38:00.816Z,257.92
2023-01-26T17:40:30.135Z,236.65
2023-01-26T17:42:57.554Z,334.25
2023-01-26T17:45:24.710Z,338.25
2023-01-26T17:47:58.760Z,340.90
2023-01-26T17:50:26.280Z,370.55
2023-01-26T17:52:55.883Z,363.42
2023-01-26T17:55:23.256Z,284.35
2023-01-26T17:57:50.761Z,374.63
2023-01-26T18:00:19.065Z,387.40
2023-01-26T18:02:52.224Z,376.92
2023-01-26T18:05:21.040Z,386.02
2023-01-26T18:07:51.357Z,400.05
2023-01-26T18:10:20.791Z,289.17
2023-01-26T18:12:48.024Z,378.10
2023-01-26T18:15:15.098Z,389.50
2023-01-26T18:17:43.408Z,377.92
2023-01-26T18:20:11.440Z,287.25
2023-01-26T18:26:31.280Z,398.33
2023-01-26T18:29:01.565Z,405.10
2023-01-26T18:31:32.088Z,397.80
2023-01-26T18:34:00.514Z,279.52
2023-01-26T18:36:28.055Z,386.77
2023-01-26T18:38:58.275Z,272.63
2023-01-26T18:42:24.954Z,273.45
2023-01-26T18:44:31.365Z,380.40
2023-01-26T18:47:20.656Z,386.70
2023-01-26T18:49:47.521Z,278.58
2023-01-26T18:52:19.283Z,294.65
2023-01-26T18:54:48.619Z,356.73
2023-01-26T18:57:18.634Z,380.73
2023-01-26T18:59:45.677Z,369.73
2023-01-26T19:02:18.002Z,408.75
2023-01-26T19:04:46.340Z,262.27
2023-01-26T19:07:16.035Z,271.38
2023-01-26T19:09:43.079Z,353.70
2023-01-26T19:12:10.290Z,353.70
2023-01-26T19:14:37.478Z,262.08
2023-01-26T19:17:04.538Z,278.08
2023-01-26T19:19:33.525Z,266.90
2023-01-26T19:22:56.677Z,313.25
2023-01-26T19:35:01.901Z,260.20
2023-01-26T19:37:28.955Z,281.77
2023-01-26T19:39:55.965Z,281.23
2023-01-26T19:42:23.024Z,286.70
2023-01-26T19:44:49.908Z,279.17
2023-01-26T19:47:16.952Z,347.00
2023-01-26T19:49:43.904Z,344.52
2023-01-26T19:52:10.923Z,338.58
2023-01-26T19:54:37.958Z,339.55
2023-01-26T19:57:07.141Z,266.92
2023-01-26T19:59:34.066Z,273.13
2023-01-26T20:02:04.090Z,268.90
2023-01-26T20:04:31.128Z,341.73
2023-01-26T20:07:00.327Z,257.73
2023-01-26T20:09:32.214Z,333.20
2023-01-26T20:11:59.276Z,329.73
2023-01-26T20:14:26.285Z,338.50
2023-01-26T20:16:53.611Z,247.13
2023-01-26T20:19:20.682Z,322.42
2023-01-26T20:21:47.848Z,333.95
2023-01-26T20:24:16.119Z,342.40
2023-01-26T20:26:44.759Z,354.88
2023-01-26T20:29:17.191Z,257.80
2023-01-26T20:31:45.240Z,249.63
2023-01-26T20:34:16.245Z,263.27
2023-01-26T20:36:45.215Z,275.40
2023-01-26T20:39:17.406Z,271.92
2023-01-26T20:41:44.388Z,251.00
2023-01-26T20:44:11.409Z,329.20
2023-01-26T20:46:43.282Z,272.15
2023-01-26T20:49:14.293Z,247.65
2023-01-26T20:51:43.119Z,266.00
2023-01-26T20:54:13.250Z,337.33
2023-01-26T20:56:41.734Z,276.77
2023-01-26T20:59:09.139Z,338.13
2023-01-26T21:01:36.607Z,238.48
2023-01-26T21:04:06.594Z,240.63
2023-01-26T21:06:34.146Z,236.93
2023-01-26T21:09:50.141Z,219.20
2023-01-26T21:12:18.960Z,309.52
2023-01-26T21:14:47.388Z,313.02
2023-01-26T21:17:22.588Z,222.57
2023-01-26T21:19:51.058Z,235.20
2023-01-26T21:22:24.455Z,234.35
2023-01-26T21:25:20.530Z,289.33
2023-01-26T21:27:48.485Z,283.02
2023-01-26T21:30:16.651Z,289.70
2023-01-26T21:32:57.935Z,286.90
2023-01-26T21:35:25.155Z,215.90
2023-01-26T21:37:54.042Z,229.65
2023-01-26T21:40:24.272Z,227.02
2023-01-26T21:42:53.510Z,192.52
2023-01-26T21:45:38.834Z,267.42
2023-01-26T21:48:28.157Z,202.90
2023-01-26T21:51:16.764Z,284.08
2023-01-26T21:54:12.386Z,274.15
2023-01-26T21:56:44.410Z,287.45
2023-01-26T21:59:14.831Z,188.95
2023-01-26T22:01:47.562Z,289.70
2023-01-26T22:04:17.677Z,288.95
2023-01-26T22:06:44.877Z,305.23
2023-01-26T22:09:26.754Z,212.23
2023-01-26T22:11:56.262Z,287.77
2023-01-26T22:14:28.221Z,202.52
2023-01-26T22:16:57.596Z,223.15
2023-01-26T22:19:24.773Z,286.75
2023-01-26T22:21:51.706Z,221.85
2023-01-26T22:24:18.943Z,224.60
2023-01-26T22:26:48.957Z,313.20
2023-01-26T22:29:16.036Z,219.50
2023-01-26T22:31:43.316Z,300.48
2023-01-26T22:34:13.508Z,274.88
2023-01-26T22:36:41.965Z,219.20
2023-01-26T22:39:09.672Z,221.93
2023-01-26T22:41:37.828Z,215.93
2023-01-26T22:44:04.976Z,223.55
2023-01-26T22:46:33.584Z,296.83
2023-01-26T22:49:00.749Z,314.17
2023-01-26T22:51:29.977Z,228.60
2023-01-26T22:53:58.366Z,211.80
2023-01-26T22:56:28.868Z,287.98
2023-01-26T22:59:01.002Z,222.50
2023-01-26T23:01:33.089Z,200.73
2023-01-26T23:04:03.251Z,211.40
2023-01-26T23:06:32.734Z,215.15
2023-01-26T23:09:01.634Z,224.70
2023-01-26T23:11:32.306Z,215.48
2023-01-26T23:14:02.101Z,317.63
2023-01-26T23:16:29.186Z,225.43
2023-01-26T23:18:58.261Z,315.15
2023-01-26T23:21:31.535Z,327.13
2023-01-26T23:23:59.673Z,222.65
2023-01-26T23:26:26.919Z,232.75
2023-01-26T23:28:53.839Z,224.30
2023-01-26T23:31:20.833Z,222.07
2023-01-26T23:33:48.127Z,214.35
2023-01-26T23:36:17.850Z,214.32
2023-01-26T23:38:45.839Z,201.13
2023-01-26T23:41:13.274Z,219.38
2023-01-26T23:43:40.270Z,226.77
2023-01-26T23:46:08.607Z,325.90
2023-01-26T23:48:35.927Z,227.75
2023-01-26T23:51:08.953Z,220.10
2023-01-26T23:53:36.083Z,298.65
2023-01-26T23:56:21.198Z,341.42
2023-01-26T23:58:50.963Z,344.92
